Flight Track Log - Related Links

Times and Time Zones

All times are in EDT time to prevent confusion due to time zone crossing. See the N3086H flight status page for this flight to view local times or setup timezone preferences in your user account.

Time Position Orientation Groundspeed Altitude Reporting Facility
EDT Latitude Longitude Course Direction KTS MPH feet Rate Location/Type
Tue 08:46:26 AM 24.5389 -81.6892 35° Northeast 125 144 3,700  Level Miami Center
Tue 08:47:00 AM 24.7390 -81.8812 324° Northwest  Level FlightAware Approximate
Tue 08:47:26 AM 24.5708 -81.6700 29° Northeast 128 147 4,300  Level Miami Center
Tue 08:48:00 AM 24.7692 -81.9053 324° Northwest  Level FlightAware Approximate
Tue 08:48:26 AM 24.6089 -81.6578 16° North 140 161 5,000  Level Miami Center
Tue 08:49:00 AM 24.7997 -81.9289 326° Northwest  Level FlightAware Approximate
Tue 08:49:26 AM 24.6403 -81.6497 13° North 128 147 5,600  Level Miami Center
Tue 08:50:00 AM 24.8305 -81.9520 326° Northwest  Level FlightAware Approximate
Tue 08:50:26 AM 24.6758 -81.6514 358° North 122 140 6,100  Level Miami Center
Tue 08:51:26 AM 24.7197 -81.6506 North 134 154 5,900 -50 Descending Miami Center
Tue 08:52:26 AM 24.7636 -81.6500 North 147 169 6,000 50 Climbing Miami Center
Tue 08:53:26 AM 24.8072 -81.6542 355° North 152 175 6,000  Level Miami Center
Tue 08:54:26 AM 24.8533 -81.6558 358° North 158 182 6,000  Level Miami Center
Tue 08:55:26 AM 24.8989 -81.6600 355° North 158 182 6,000 50 Level Miami Center
Tue 08:56:26 AM 24.9469 -81.6642 356° North 158 182 6,100 50 Climbing Miami Center
Tue 08:57:26 AM 24.9928 -81.6658 358° North 158 182 6,100  Level Miami Center
Tue 08:58:26 AM 25.0386 -81.6700 355° North 158 182 6,100  Level Miami Center
Tue 08:59:26 AM 25.0867 -81.6719 358° North 158 182 6,100  Level Miami Center
Tue 09:00:26 AM 25.1325 -81.6758 356° North 158 182 6,100  Level Miami Center
Tue 09:01:26 AM 25.1783 -81.6778 358° North 158 182 6,100  Level Miami Center
Tue 09:02:26 AM 25.2239 -81.6842 353° North 158 182 6,100  Level Miami Center
Tue 09:03:26 AM 25.2719 -81.6861 358° North 158 182 6,100 -50 Level Miami Center
Tue 09:04:26 AM 25.3072 -81.6919 351° North 158 182 6,000 -50 Descending Miami Center
Tue 09:05:26 AM 25.3633 -81.7033 350° North 158 182 6,000  Level Miami Center
Tue 09:06:26 AM 25.4089 -81.7122 350° North 158 182 6,000 50 Level Miami Center
Tue 09:07:26 AM 25.4544 -81.7208 350° North 158 182 6,100 -100 Climbing Miami Center
Tue 09:08:26 AM 25.5022 -81.7319 348° North 163 188 5,800 -400 Descending Miami Center
Tue 09:09:26 AM 25.5519 -81.7456 346° North 169 194 5,300 -500 Descending Miami Center
Tue 09:10:26 AM 25.5997 -81.7497 356° North 184 212 4,800 -550 Descending Miami Center
Tue 09:11:26 AM 25.6558 -81.7611 350° North 184 212 4,200 -350 Descending Miami Center
Tue 09:12:26 AM 25.7039 -81.7608 360° North 178 205 4,100 -50 Descending Miami Center
Tue 09:13:26 AM 25.7517 -81.7628 358° North 173 199 4,100  Level Miami Center
Tue 09:14:26 AM 25.7997 -81.7672 355° North 173 199 4,100 -300 Level Miami Center
Tue 09:15:26 AM 25.8494 -81.7739 353° North 178 205 3,500 -650 Descending Miami Center
Tue 09:16:26 AM 25.9014 -81.7806 353° North 183 211 2,800 -650 Descending Miami Center
Tue 09:17:26 AM 25.9536 -81.7872 353° North 183 211 2,200 -600 Descending Miami Center
Tue 09:18:26 AM 26.0075 -81.7917 356° North 183 211 1,600 -350 Descending Miami Center
Tue 09:19:26 AM 26.0556 -81.7961 355° North 178 205 1,500 -200 Descending Miami Center
Tue 09:20:26 AM 26.1036 -81.7958 360° North 178 205 1,200 -600 Descending Miami Center
Tue 09:21:26 AM 26.1372 -81.7903 North 156 180 300 -500 Descending Miami Center
Tue 09:22:26 AM 26.1853 -81.7875 North 150 173 200 -100 Descending Miami Center
Tue 09:24:00 AM 26.1524 -81.7756 152° Southeast  Level Estimated

Login

Don't have an account? Register now (free) for customized features, flight alerts, and more!